Time;durP1;ratioP1;P1;durP2;ratioP2;P2;SDS_P1;SDS_P2;PMS_P1;PMS_P2;Temp;Humidity;BMP_temperature;BMP_pressure;BME280_temperature;BME280_humidity;BME280_pressure;Samples;Min_cycle;Max_cycle;Signal;HPM_P1;HPM_P2
2019/05/14 00:02:22;;;;;;;7.8;2.3;;;;;;;7.52;55.5957;973.4405;;;;
2019/05/14 00:04:53;;;;;;;4.6;2;;;;;;;7.49;54.49707;973.4764;;;;
2019/05/14 00:07:19;;;;;;;6.2;2.2;;;;;;;7.36;53.13086;973.4316;;;;
2019/05/14 00:09:44;;;;;;;6.4;2;;;;;;;7.42;56.10938;973.3809;;;;
2019/05/14 00:12:09;;;;;;;5.4;2.3;;;;;;;7.36;54.8457;973.3536;;;;
2019/05/14 00:14:34;;;;;;;5.6;2;;;;;;;7.37;56.7207;973.4221;;;;
2019/05/14 00:16:59;;;;;;;7.2;2.1;;;;;;;7.36;56.90137;973.4012;;;;
2019/05/14 00:19:26;;;;;;;5.2;2.1;;;;;;;7.31;56.11816;973.391;;;;
2019/05/14 00:21:51;;;;;;;5.3;2.1;;;;;;;7.36;56.20508;973.3624;;;;
2019/05/14 00:24:17;;;;;;;5.6;2.2;;;;;;;7.31;56.25586;973.3906;;;;
2019/05/14 00:26:42;;;;;;;5.6;2.1;;;;;;;7.31;53.91309;973.3345;;;;
2019/05/14 00:29:08;;;;;;;5.3;2.2;;;;;;;7.26;53.61035;973.3544;;;;
2019/05/14 00:31:33;;;;;;;5.7;2.6;;;;;;;7.26;54.16992;973.2936;;;;
2019/05/14 00:34:01;;;;;;;4.4;2.2;;;;;;;7.29;55.77344;973.305;;;;
2019/05/14 00:36:26;;;;;;;6.5;2.4;;;;;;;7.29;56.26465;973.318;;;;
2019/05/14 00:38:51;;;;;;;6.1;2.6;;;;;;;7.3;57.19043;973.3222;;;;
2019/05/14 00:41:16;;;;;;;6.7;2.5;;;;;;;7.25;56.43066;973.3636;;;;
2019/05/14 00:43:41;;;;;;;7.1;2.8;;;;;;;7.21;58.35449;973.3138;;;;
2019/05/14 00:46:06;;;;;;;6.8;2.4;;;;;;;7.29;58.96094;973.2921;;;;
2019/05/14 00:48:31;;;;;;;6.6;2.6;;;;;;;7.3;56.61914;973.2184;;;;
2019/05/14 00:50:57;;;;;;;7.5;2.4;;;;;;;7.3;58.53906;973.2053;;;;
2019/05/14 00:53:22;;;;;;;5.6;2.4;;;;;;;7.27;57.28809;973.2459;;;;
2019/05/14 00:55:47;;;;;;;4.8;2.5;;;;;;;7.27;58.49023;973.129;;;;
2019/05/14 00:58:12;;;;;;;5.3;2.6;;;;;;;7.31;57.99121;973.1658;;;;
2019/05/14 01:00:37;;;;;;;7;2.9;;;;;;;7.18;57.24316;973.1121;;;;
2019/05/14 01:03:02;;;;;;;6.3;2.7;;;;;;;7.11;55.88672;973.1807;;;;
2019/05/14 01:05:27;;;;;;;6.3;2.5;;;;;;;7.02;57.66699;973.1117;;;;
2019/05/14 01:07:52;;;;;;;5.3;2.6;;;;;;;7.07;57.14746;973.1656;;;;
2019/05/14 01:10:18;;;;;;;7.7;2.7;;;;;;;6.98;56.45215;973.1611;;;;
2019/05/14 01:12:43;;;;;;;7.8;2.8;;;;;;;6.98;58.82617;973.1439;;;;
2019/05/14 01:15:08;;;;;;;6;2.6;;;;;;;6.95;58.87891;973.1325;;;;
2019/05/14 01:17:33;;;;;;;5;2.8;;;;;;;6.98;58.79102;973.0578;;;;
2019/05/14 01:19:58;;;;;;;10.8;3.8;;;;;;;6.8;56.82813;973.0667;;;;
2019/05/14 01:22:23;;;;;;;4.9;2.7;;;;;;;6.77;57.33691;973.0294;;;;
2019/05/14 01:24:48;;;;;;;7.6;3.2;;;;;;;6.84;60.5293;973.0429;;;;
2019/05/14 01:27:14;;;;;;;7.2;2.9;;;;;;;6.86;60.25781;973.0811;;;;
2019/05/14 01:29:39;;;;;;;7.2;3;;;;;;;6.79;57.98828;972.9895;;;;
2019/05/14 01:32:04;;;;;;;6.3;2.9;;;;;;;6.79;58.55859;972.9117;;;;
2019/05/14 01:34:29;;;;;;;6;3;;;;;;;6.78;58.69531;972.9683;;;;
2019/05/14 01:36:54;;;;;;;6.3;2.9;;;;;;;6.7;58.74121;972.8947;;;;
2019/05/14 01:39:19;;;;;;;7.4;3;;;;;;;6.62;57.75098;972.9158;;;;
2019/05/14 01:41:45;;;;;;;7.4;3.1;;;;;;;6.64;57.06934;972.8198;;;;
2019/05/14 01:44:10;;;;;;;7.7;3.2;;;;;;;6.57;57.56152;972.8017;;;;
2019/05/14 01:46:35;;;;;;;6;2.8;;;;;;;6.57;60.06934;972.7971;;;;
2019/05/14 01:49:00;;;;;;;7.1;3.4;;;;;;;6.5;60.17383;972.7748;;;;
2019/05/14 01:51:25;;;;;;;7.3;3.2;;;;;;;6.48;58.54004;972.7587;;;;
2019/05/14 01:53:50;;;;;;;8.7;3.6;;;;;;;6.38;59.20996;972.7508;;;;
2019/05/14 01:56:15;;;;;;;8;3.4;;;;;;;6.44;58.62695;972.7648;;;;
2019/05/14 01:58:40;;;;;;;8.4;3.2;;;;;;;6.4;59.3623;972.7626;;;;
2019/05/14 02:01:07;;;;;;;7.4;3.2;;;;;;;6.37;58.75293;972.7771;;;;
2019/05/14 02:03:32;;;;;;;9.1;3.4;;;;;;;6.37;59.3457;972.7597;;;;
2019/05/14 02:05:57;;;;;;;8.5;3.6;;;;;;;6.32;60.86621;972.7103;;;;
2019/05/14 02:08:22;;;;;;;8.1;3.4;;;;;;;6.29;60.16602;972.7506;;;;
2019/05/14 02:10:47;;;;;;;6.8;3.1;;;;;;;6.32;59.64551;972.7238;;;;
2019/05/14 02:13:13;;;;;;;6.7;3.3;;;;;;;6.36;58.28516;972.6953;;;;
2019/05/14 02:15:38;;;;;;;8.2;3.6;;;;;;;6.4;61.37793;972.6592;;;;
2019/05/14 02:18:03;;;;;;;6.5;3.1;;;;;;;6.38;61.0918;972.5865;;;;
2019/05/14 02:20:28;;;;;;;8.5;3.6;;;;;;;6.29;59.97266;972.5694;;;;
2019/05/14 02:22:53;;;;;;;7.6;3.5;;;;;;;6.36;60.50781;972.527;;;;
2019/05/14 02:25:18;;;;;;;5.9;2.9;;;;;;;6.38;60.32715;972.5394;;;;
2019/05/14 02:27:43;;;;;;;6.1;3.1;;;;;;;6.39;59.41797;972.5042;;;;
2019/05/14 02:30:08;;;;;;;6.8;2.7;;;;;;;6.35;59.06934;972.4673;;;;
2019/05/14 02:32:33;;;;;;;7.5;3.2;;;;;;;6.31;58.81348;972.5641;;;;
2019/05/14 02:34:59;;;;;;;9;3.3;;;;;;;6.33;58.67969;972.4808;;;;
2019/05/14 02:37:24;;;;;;;8.3;2.8;;;;;;;6.32;58.64453;972.4772;;;;
2019/05/14 02:39:50;;;;;;;6.5;3.1;;;;;;;6.34;59.50098;972.446;;;;
2019/05/14 02:42:15;;;;;;;7.2;2.9;;;;;;;6.31;59.95215;972.4088;;;;
2019/05/14 02:44:41;;;;;;;8.7;2.9;;;;;;;6.31;59.15625;972.4301;;;;
2019/05/14 02:47:06;;;;;;;7.2;2.9;;;;;;;6.25;58.35059;972.3641;;;;
2019/05/14 02:49:31;;;;;;;6;3.1;;;;;;;6.38;63.13184;972.3922;;;;
2019/05/14 02:51:56;;;;;;;5.9;3.1;;;;;;;6.33;60.84473;972.4119;;;;
2019/05/14 02:54:21;;;;;;;4.7;2.7;;;;;;;6.3;61.20605;972.3399;;;;
2019/05/14 02:56:47;;;;;;;5.3;2.6;;;;;;;6.23;60.43066;972.305;;;;
2019/05/14 02:59:13;;;;;;;7.8;3.1;;;;;;;6.18;60.49316;972.2123;;;;
2019/05/14 03:01:38;;;;;;;5.7;3;;;;;;;6.23;60.91113;972.2745;;;;
2019/05/14 03:04:03;;;;;;;6.9;3.1;;;;;;;6.23;60.97949;972.2486;;;;
2019/05/14 03:06:28;;;;;;;6.2;3;;;;;;;6.23;59.60059;972.2227;;;;
2019/05/14 03:08:53;;;;;;;5.5;3;;;;;;;6.25;61.13086;972.2346;;;;
2019/05/14 03:11:18;;;;;;;6.9;3.2;;;;;;;6.22;61.0332;972.1973;;;;
2019/05/14 03:13:43;;;;;;;7.5;3.4;;;;;;;6.18;60.42578;972.1559;;;;
2019/05/14 03:16:08;;;;;;;9.6;3.2;;;;;;;6.17;60.55957;972.1569;;;;
2019/05/14 03:18:34;;;;;;;7.5;3;;;;;;;6.18;62.60059;972.2252;;;;
2019/05/14 03:20:59;;;;;;;5.8;3;;;;;;;6.21;61.9209;972.2108;;;;
2019/05/14 03:23:24;;;;;;;7;2.8;;;;;;;6.21;62.84375;972.1678;;;;
2019/05/14 03:25:49;;;;;;;7.1;2.9;;;;;;;6.21;62.68457;972.1418;;;;
2019/05/14 03:28:15;;;;;;;5.8;3;;;;;;;6.23;62.7334;972.1537;;;;
2019/05/14 03:30:40;;;;;;;8.3;3.1;;;;;;;6.15;62.02832;972.1356;;;;
2019/05/14 03:33:05;;;;;;;7.6;3;;;;;;;6.15;61.52539;972.1445;;;;
2019/05/14 03:35:30;;;;;;;7.6;3.3;;;;;;;6.13;61.91016;972.1108;;;;
2019/05/14 03:37:55;;;;;;;7;3;;;;;;;6.14;60.53223;972.1195;;;;
2019/05/14 03:40:20;;;;;;;7.9;3;;;;;;;6.11;61.49609;972.1941;;;;
2019/05/14 03:42:46;;;;;;;5.9;3.1;;;;;;;6.11;60.64258;972.1469;;;;
2019/05/14 03:45:12;;;;;;;6.7;3.2;;;;;;;6;61.40137;972.1002;;;;
2019/05/14 03:47:37;;;;;;;5.9;3.1;;;;;;;5.96;61.54395;972.0762;;;;
2019/05/14 03:50:02;;;;;;;7.9;3.3;;;;;;;5.93;62.30371;972.0602;;;;
2019/05/14 03:52:28;;;;;;;8.6;3.3;;;;;;;5.99;64.82617;972.0405;;;;
2019/05/14 03:54:53;;;;;;;6.3;2.9;;;;;;;5.93;62.59766;972.0215;;;;
2019/05/14 03:57:19;;;;;;;8.8;3.2;;;;;;;5.87;62.60156;971.9981;;;;
2019/05/14 03:59:45;;;;;;;8.5;3.1;;;;;;;5.86;64.6377;971.9771;;;;
2019/05/14 04:02:28;;;;;;;7.8;2.9;;;;;;;5.81;63.92285;971.9799;;;;
2019/05/14 04:04:53;;;;;;;9.1;3.5;;;;;;;5.86;63.9873;971.9946;;;;
2019/05/14 04:07:19;;;;;;;8.1;3.1;;;;;;;5.78;63.41797;972.0201;;;;
2019/05/14 04:09:44;;;;;;;8.1;3.4;;;;;;;5.73;64.37891;972.0222;;;;
2019/05/14 04:12:09;;;;;;;7;3.2;;;;;;;5.76;64.26855;972.0036;;;;
2019/05/14 04:14:36;;;;;;;6.7;3;;;;;;;5.71;61.84961;971.9584;;;;
2019/05/14 04:17:01;;;;;;;6.3;2.8;;;;;;;5.75;63.2998;971.9611;;;;
2019/05/14 04:19:26;;;;;;;6.1;2.9;;;;;;;5.85;65.58008;971.9345;;;;
2019/05/14 04:21:51;;;;;;;6.4;3.1;;;;;;;5.88;63.28613;971.9459;;;;
2019/05/14 04:24:20;;;;;;;6.1;2.8;;;;;;;5.84;61.95898;971.9395;;;;
2019/05/14 04:26:45;;;;;;;8.2;3.3;;;;;;;5.81;64.05078;971.9277;;;;
2019/05/14 04:29:10;;;;;;;6.8;2.9;;;;;;;5.79;63.77344;971.9328;;;;
2019/05/14 04:31:35;;;;;;;6.2;3;;;;;;;5.88;64.95801;971.9117;;;;
2019/05/14 04:34:00;;;;;;;6.6;2.8;;;;;;;5.92;62.74512;971.8834;;;;
2019/05/14 04:36:25;;;;;;;9;3.1;;;;;;;5.85;62.47266;971.8998;;;;
2019/05/14 04:38:50;;;;;;;6.1;3.1;;;;;;;5.91;64.08691;971.9186;;;;
2019/05/14 04:41:15;;;;;;;9.1;3.6;;;;;;;5.86;64.85254;971.9081;;;;
2019/05/14 04:43:40;;;;;;;8.2;3.2;;;;;;;5.8;62.40918;971.9369;;;;
2019/05/14 04:46:05;;;;;;;9;3;;;;;;;5.76;61.82227;971.9001;;;;
2019/05/14 04:48:30;;;;;;;8.2;3.1;;;;;;;5.77;62.24414;972.0115;;;;
2019/05/14 04:50:55;;;;;;;10.6;3.3;;;;;;;5.74;62.43359;972.0175;;;;
2019/05/14 04:53:21;;;;;;;8.1;3;;;;;;;5.75;63.82227;972.0346;;;;
2019/05/14 04:55:46;;;;;;;8.3;3.1;;;;;;;5.79;63.87598;971.95;;;;
2019/05/14 04:58:11;;;;;;;6.9;3.3;;;;;;;5.85;62.15332;971.9433;;;;
2019/05/14 05:00:36;;;;;;;8.5;3.3;;;;;;;5.86;61.64355;971.9686;;;;
2019/05/14 05:03:01;;;;;;;8.4;3.4;;;;;;;5.88;64.68652;971.976;;;;
2019/05/14 05:05:26;;;;;;;9.1;3.5;;;;;;;5.87;62.94141;971.9339;;;;
2019/05/14 05:07:51;;;;;;;10.6;3.6;;;;;;;5.97;64.03906;971.9288;;;;
2019/05/14 05:10:16;;;;;;;10.4;3.8;;;;;;;6;63.17773;972.0008;;;;
2019/05/14 05:12:42;;;;;;;8.7;3.4;;;;;;;6.05;62.62793;971.8817;;;;
2019/05/14 05:15:07;;;;;;;8.6;3.7;;;;;;;6.1;62.47461;971.957;;;;
2019/05/14 05:17:32;;;;;;;7.6;3.2;;;;;;;6.17;61.07422;971.9363;;;;
2019/05/14 05:19:57;;;;;;;10.3;3.4;;;;;;;6.17;62.65625;971.9409;;;;
2019/05/14 05:22:22;;;;;;;8;3.1;;;;;;;6.22;60.5332;971.8431;;;;
2019/05/14 05:24:49;;;;;;;5.9;2.8;;;;;;;6.32;63.52051;971.9378;;;;
2019/05/14 05:27:14;;;;;;;7.7;3.2;;;;;;;6.36;63.31055;971.9228;;;;
2019/05/14 05:29:39;;;;;;;7;3.3;;;;;;;6.39;60.4209;971.9083;;;;
2019/05/14 05:32:04;;;;;;;6.9;3.1;;;;;;;6.45;60.51953;971.8876;;;;
2019/05/14 05:34:30;;;;;;;8.5;3;;;;;;;6.53;59.7666;971.8926;;;;
2019/05/14 05:36:55;;;;;;;8.9;3;;;;;;;6.69;59.01367;971.9532;;;;
2019/05/14 05:39:20;;;;;;;7.9;3;;;;;;;6.78;58.5127;971.94;;;;
2019/05/14 05:41:45;;;;;;;8.5;3.3;;;;;;;6.86;60.64648;971.9705;;;;
2019/05/14 05:44:10;;;;;;;6.6;3;;;;;;;6.96;59.58887;971.9864;;;;
2019/05/14 05:46:35;;;;;;;7.9;2.9;;;;;;;6.87;58.69629;972.082;;;;
2019/05/14 05:49:01;;;;;;;4.8;2.7;;;;;;;6.89;58.51563;972.0425;;;;
2019/05/14 05:51:25;;;;;;;7.7;3;;;;;;;6.9;61.97461;972.0201;;;;
2019/05/14 05:53:51;;;;;;;10.1;3.3;;;;;;;6.93;59.19434;972.0709;;;;
2019/05/14 05:56:16;;;;;;;7;3.4;;;;;;;6.97;58.89258;972.0251;;;;
2019/05/14 05:58:41;;;;;;;6.5;3.4;;;;;;;6.94;59.49316;972.0137;;;;
2019/05/14 06:01:06;;;;;;;7.9;3.6;;;;;;;7.06;58.26563;972.0463;;;;
2019/05/14 06:03:31;;;;;;;7.3;3;;;;;;;7.11;57.54199;972.0005;;;;
2019/05/14 06:05:56;;;;;;;6.9;3;;;;;;;7.11;58.45508;972.0394;;;;
2019/05/14 06:08:22;;;;;;;6.6;3.2;;;;;;;7.15;61.63477;971.9681;;;;
2019/05/14 06:10:46;;;;;;;7;3.3;;;;;;;7.19;58.56934;971.9572;;;;
2019/05/14 06:13:12;;;;;;;7.4;3.1;;;;;;;7.27;59.39063;971.9444;;;;
2019/05/14 06:15:37;;;;;;;7.3;3.7;;;;;;;7.34;58.41699;971.8933;;;;
2019/05/14 06:18:02;;;;;;;6.1;3;;;;;;;7.46;57.58887;971.8823;;;;
2019/05/14 06:20:27;;;;;;;7.2;3.2;;;;;;;7.47;58.20703;971.8035;;;;
2019/05/14 06:23:39;;;;;;;7.1;3;;;;;;;7.53;60.06836;971.8173;;;;
2019/05/14 06:25:17;;;;;;;7.4;3.4;;;;;;;7.61;58.78516;971.7919;;;;
2019/05/14 06:27:42;;;;;;;7.4;3.7;;;;;;;7.73;56.57227;971.7678;;;;
2019/05/14 06:30:08;;;;;;;7.6;2.9;;;;;;;7.81;56.24023;971.72;;;;
2019/05/14 06:32:33;;;;;;;7.7;3.3;;;;;;;7.93;56.51855;971.7304;;;;
2019/05/14 06:34:58;;;;;;;5.8;2.8;;;;;;;8.04;57.37988;971.7416;;;;
2019/05/14 06:37:23;;;;;;;7.5;3.1;;;;;;;8.12;56.28027;971.7065;;;;
2019/05/14 06:39:48;;;;;;;6.5;3.3;;;;;;;8.19;57.51465;971.7368;;;;
2019/05/14 06:42:13;;;;;;;6.4;3.1;;;;;;;8.31;57.25488;971.6781;;;;
2019/05/14 06:44:40;;;;;;;8.7;3.3;;;;;;;8.41;56.5127;971.6599;;;;
2019/05/14 06:47:06;;;;;;;9.1;3.1;;;;;;;8.5;55.84961;971.6892;;;;
2019/05/14 06:49:30;;;;;;;6.2;3.1;;;;;;;8.61;54.22559;971.6259;;;;
2019/05/14 06:51:57;;;;;;;7.1;2.9;;;;;;;8.75;57.54395;971.635;;;;
2019/05/14 06:54:21;;;;;;;7.5;2.3;;;;;;;8.79;52.88477;971.6193;;;;
2019/05/14 06:56:46;;;;;;;4.9;2.2;;;;;;;8.87;52.49219;971.6665;;;;
2019/05/14 06:59:13;;;;;;;5.1;2.3;;;;;;;8.95;51.44727;971.6531;;;;
2019/05/14 07:01:38;;;;;;;7.4;2.5;;;;;;;9.05;50.69141;971.5818;;;;
2019/05/14 07:04:03;;;;;;;7;2.4;;;;;;;9.13;49.63379;971.5511;;;;
2019/05/14 07:06:28;;;;;;;4.5;2.1;;;;;;;9.18;49.06641;971.5;;;;
2019/05/14 07:08:53;;;;;;;6.1;2.3;;;;;;;9.24;49.86523;971.5742;;;;
2019/05/14 07:11:20;;;;;;;5;2.2;;;;;;;9.26;47.76758;971.5081;;;;
2019/05/14 07:13:43;;;;;;;5.1;2.1;;;;;;;9.4;49.05762;971.5598;;;;
2019/05/14 07:16:09;;;;;;;6.4;2.5;;;;;;;9.43;47.95703;971.4934;;;;
2019/05/14 07:18:35;;;;;;;5.3;2.2;;;;;;;9.37;46;971.4838;;;;
2019/05/14 07:21:00;;;;;;;7.8;2.4;;;;;;;9.45;46.19238;971.4917;;;;
2019/05/14 07:23:26;;;;;;;6.4;2.3;;;;;;;9.39;46.73633;971.4781;;;;
2019/05/14 07:25:51;;;;;;;5.8;2.3;;;;;;;9.55;47.58105;971.3986;;;;
2019/05/14 07:28:16;;;;;;;8.4;3.5;;;;;;;9.61;45.95703;971.3946;;;;
2019/05/14 07:30:42;;;;;;;9;4.1;;;;;;;9.62;44.46484;971.381;;;;
2019/05/14 07:33:07;;;;;;;7.9;3;;;;;;;9.67;44.9873;971.3906;;;;
2019/05/14 07:35:32;;;;;;;6.5;2.5;;;;;;;9.67;45.11426;971.3172;;;;
2019/05/14 07:37:57;;;;;;;8.6;3.4;;;;;;;9.71;45.2207;971.2928;;;;
2019/05/14 07:40:22;;;;;;;7.1;2.6;;;;;;;9.78;44.33203;971.2797;;;;
2019/05/14 07:42:47;;;;;;;5.9;2.6;;;;;;;9.83;44.45313;971.2456;;;;
2019/05/14 07:45:13;;;;;;;5.5;2.2;;;;;;;9.85;43.92578;971.1969;;;;
2019/05/14 07:47:41;;;;;;;6.3;2.4;;;;;;;9.93;45.58887;971.248;;;;
2019/05/14 07:50:03;;;;;;;8.7;2.3;;;;;;;9.98;44.18164;971.2053;;;;
2019/05/14 07:52:28;;;;;;;6.7;2.2;;;;;;;10.04;44.42773;971.2101;;;;
2019/05/14 07:54:53;;;;;;;9.1;2.4;;;;;;;10.14;44.59961;971.1951;;;;
2019/05/14 07:57:18;;;;;;;8.7;2.2;;;;;;;10.2;42.76563;971.1825;;;;
2019/05/14 07:59:48;;;;;;;8.2;2.4;;;;;;;10.16;42.64746;971.0675;;;;
2019/05/14 08:02:09;;;;;;;5.5;2.1;;;;;;;10.18;42.84375;971.1448;;;;
2019/05/14 08:04:34;;;;;;;5.9;1.9;;;;;;;10.24;41.90723;971.0583;;;;
2019/05/14 08:07:00;;;;;;;7.2;2.3;;;;;;;10.24;41.52734;971.0625;;;;
2019/05/14 08:09:25;;;;;;;6;2.2;;;;;;;10.37;41.75879;971.08;;;;
2019/05/14 08:11:52;;;;;;;5.8;2.3;;;;;;;10.44;42.7207;971.0316;;;;
2019/05/14 08:14:15;;;;;;;5.5;2;;;;;;;10.52;42.47461;971.0481;;;;
2019/05/14 08:16:40;;;;;;;5.4;2.1;;;;;;;10.57;41.44434;970.9882;;;;
2019/05/14 08:19:06;;;;;;;5.9;2.2;;;;;;;10.68;43.10059;970.9459;;;;
2019/05/14 08:21:31;;;;;;;5.9;2.1;;;;;;;10.63;40.62109;971.0189;;;;
2019/05/14 08:23:57;;;;;;;6.4;2.2;;;;;;;10.48;41.41211;971.033;;;;
2019/05/14 08:26:22;;;;;;;4.1;2;;;;;;;10.3;41.59082;971.0154;;;;
2019/05/14 08:28:47;;;;;;;7.8;2.2;;;;;;;10.26;41.55273;971.061;;;;
2019/05/14 08:31:13;;;;;;;8.1;2;;;;;;;10.16;42.6123;971.0414;;;;
2019/05/14 08:33:39;;;;;;;10.5;2.1;;;;;;;10.22;45.19434;971.0112;;;;
2019/05/14 08:36:03;;;;;;;7.4;2.4;;;;;;;10.03;43.72559;970.9548;;;;
2019/05/14 08:38:28;;;;;;;5.1;2;;;;;;;9.91;45.33398;970.9192;;;;
2019/05/14 08:40:53;;;;;;;7;2.2;;;;;;;9.99;44.97461;970.927;;;;
2019/05/14 08:43:18;;;;;;;6.7;2.4;;;;;;;10;45.27441;970.9308;;;;
2019/05/14 08:45:43;;;;;;;5.6;2.3;;;;;;;10.14;45.55371;970.9126;;;;
2019/05/14 08:48:12;;;;;;;7.8;2.4;;;;;;;10.15;44.63477;970.9514;;;;
2019/05/14 08:50:37;;;;;;;6;2.3;;;;;;;10.14;44.50781;970.8951;;;;
2019/05/14 08:53:02;;;;;;;7.5;2.3;;;;;;;10.24;45.01172;970.915;;;;
2019/05/14 08:55:30;;;;;;;6.7;2.6;;;;;;;10.33;44.71094;970.9179;;;;
2019/05/14 08:57:53;;;;;;;6.2;2.5;;;;;;;10.53;44.58105;970.9041;;;;
2019/05/14 09:00:18;;;;;;;7;2.6;;;;;;;10.68;45.16211;970.8197;;;;
2019/05/14 09:02:43;;;;;;;6.1;2.5;;;;;;;10.77;44.91699;970.8524;;;;
2019/05/14 09:05:08;;;;;;;6;2.6;;;;;;;11.02;43.41211;970.8;;;;
2019/05/14 09:07:33;;;;;;;6.1;2.4;;;;;;;11.04;42.45703;970.7943;;;;
2019/05/14 09:10:00;;;;;;;8.2;2.4;;;;;;;10.88;42.93652;970.8097;;;;
2019/05/14 09:12:26;;;;;;;6.6;2.7;;;;;;;10.67;42.84668;970.7767;;;;
2019/05/14 09:14:51;;;;;;;7;2.9;;;;;;;10.34;42.91699;970.8083;;;;
2019/05/14 09:17:16;;;;;;;5.2;2.6;;;;;;;10.41;42.78613;970.7773;;;;
2019/05/14 09:19:41;;;;;;;7.7;2.7;;;;;;;10.37;43.49609;970.767;;;;
2019/05/14 09:22:06;;;;;;;6.9;2.9;;;;;;;10.37;43.28809;970.7369;;;;
2019/05/14 09:24:31;;;;;;;6.8;2.8;;;;;;;10.35;43.25293;970.7422;;;;
2019/05/14 09:27:06;;;;;;;;;;;;;;;;;;;;;
2019/05/14 09:29:27;;;;;;;7.6;2.8;;;;;;;10.09;46.06641;970.6462;;;;
2019/05/14 09:31:46;;;;;;;7.9;2.6;;;;;;;10.18;46.84473;970.7709;;;;
2019/05/14 09:34:11;;;;;;;6.4;2.5;;;;;;;10.15;46.46387;970.7292;;;;
2019/05/14 09:36:38;;;;;;;5.3;2.7;;;;;;;10.26;44.54297;970.7612;;;;
2019/05/14 09:39:04;;;;;;;6.6;2.8;;;;;;;10.18;44.66113;970.688;;;;
2019/05/14 09:41:28;;;;;;;6;2.8;;;;;;;10.21;46.31934;970.7606;;;;
2019/05/14 09:43:53;;;;;;;5.7;2.6;;;;;;;10.28;46.66016;970.7081;;;;
2019/05/14 09:46:18;;;;;;;8.1;3;;;;;;;10.21;46.10156;970.76;;;;
2019/05/14 09:48:47;;;;;;;6.3;3;;;;;;;10.26;47.87793;970.7656;;;;
2019/05/14 09:51:13;;;;;;;5.8;2.6;;;;;;;10.25;45.72559;970.7141;;;;
2019/05/14 09:53:41;;;;;;;6.2;2.5;;;;;;;10.23;46.36816;970.7112;;;;
2019/05/14 09:56:03;;;;;;;7.1;2.9;;;;;;;10.2;46.33008;970.7349;;;;
2019/05/14 09:58:30;;;;;;;6;2.7;;;;;;;10.19;45.44434;970.7266;;;;
2019/05/14 10:00:55;;;;;;;4.3;2.6;;;;;;;10.29;45.41992;970.6987;;;;
2019/05/14 10:03:21;;;;;;;6;2.6;;;;;;;10.07;45.78711;970.7;;;;
2019/05/14 10:05:46;;;;;;;6.2;2.3;;;;;;;10.4;42.7168;970.6127;;;;
2019/05/14 10:08:11;;;;;;;6.6;2.3;;;;;;;10.49;42.7373;970.528;;;;
2019/05/14 10:10:41;;;;;;;7.6;2.6;;;;;;;10.59;43.29883;970.4128;;;;
2019/05/14 10:13:01;;;;;;;5;2.5;;;;;;;10.71;43.16211;970.3438;;;;
2019/05/14 10:15:26;;;;;;;5.2;2.3;;;;;;;10.87;43.48926;970.4669;;;;
2019/05/14 10:17:51;;;;;;;6.4;2.5;;;;;;;10.6;42.41406;970.3772;;;;
2019/05/14 10:20:16;;;;;;;5;2.5;;;;;;;10.71;41.75684;970.4523;;;;
2019/05/14 10:22:42;;;;;;;6.3;2.5;;;;;;;10.86;43.15332;970.3764;;;;
2019/05/14 10:25:15;;;;;;;4.7;2.4;;;;;;;10.88;41.17383;970.2794;;;;
2019/05/14 10:27:32;;;;;;;5.5;2.3;;;;;;;11.13;38.24805;970.3006;;;;
2019/05/14 10:30:00;;;;;;;5.3;2.2;;;;;;;11.36;38.61523;970.2445;;;;
2019/05/14 10:32:22;;;;;;;4.9;2.2;;;;;;;11.6;40.06641;970.2924;;;;
2019/05/14 10:34:54;;;;;;;6.4;2.3;;;;;;;11.81;42.48633;970.2894;;;;
2019/05/14 10:37:18;;;;;;;4.6;2.3;;;;;;;12.06;39.09277;970.2494;;;;
2019/05/14 10:39:41;;;;;;;4.5;2.1;;;;;;;12.45;40.73438;970.2194;;;;
2019/05/14 10:42:06;;;;;;;4.4;2;;;;;;;12.53;34.91406;970.2221;;;;
2019/05/14 10:44:31;;;;;;;4.8;2.1;;;;;;;12.44;37.80859;970.1942;;;;
2019/05/14 10:46:56;;;;;;;4.3;2.2;;;;;;;12.07;35.87109;970.1917;;;;
2019/05/14 10:49:21;;;;;;;4.5;2.3;;;;;;;12;37.83984;970.0449;;;;
2019/05/14 10:51:49;;;;;;;5.5;2.4;;;;;;;11.75;39.05273;970.1289;;;;
2019/05/14 10:54:14;;;;;;;5.5;2.2;;;;;;;11.63;38.73047;970.0941;;;;
2019/05/14 10:56:36;;;;;;;3.8;1.9;;;;;;;11.48;38.44043;970.0918;;;;
2019/05/14 10:59:01;;;;;;;5.9;1.9;;;;;;;11.45;36.78809;970.0686;;;;
2019/05/14 11:01:27;;;;;;;3.9;1.8;;;;;;;11.27;37.46484;970.1599;;;;
2019/05/14 11:03:55;;;;;;;4.5;1.8;;;;;;;11.17;40.47559;970.1191;;;;
2019/05/14 11:06:17;;;;;;;4.4;2.2;;;;;;;11.18;40.51172;970.2449;;;;
2019/05/14 11:08:42;;;;;;;4.2;2.2;;;;;;;11.4;41.8584;970.198;;;;
2019/05/14 11:11:07;;;;;;;4.2;2.3;;;;;;;12.47;37.74121;970.0699;;;;
2019/05/14 11:13:32;;;;;;;4.4;1.9;;;;;;;13.93;35.15527;970.1434;;;;
2019/05/14 11:15:57;;;;;;;4;2.1;;;;;;;15.25;31.39941;969.9688;;;;
2019/05/14 11:18:23;;;;;;;4.5;2.1;;;;;;;16.81;35.32813;969.97;;;;
2019/05/14 11:20:48;;;;;;;4.2;2;;;;;;;17.9;30.71094;969.9114;;;;
2019/05/14 11:23:13;;;;;;;4.6;1.9;;;;;;;18.19;26.73828;969.7988;;;;
2019/05/14 11:25:38;;;;;;;5;1.9;;;;;;;17.55;28.82813;969.7079;;;;
2019/05/14 11:28:03;;;;;;;4.2;1.9;;;;;;;17.39;28.75879;969.7603;;;;
2019/05/14 11:30:28;;;;;;;3.6;1.8;;;;;;;16.05;33.16895;969.7913;;;;
2019/05/14 11:32:53;;;;;;;5;2.2;;;;;;;15.11;36.45996;969.8195;;;;
2019/05/14 11:35:18;;;;;;;4.7;2.2;;;;;;;13.83;36.875;969.7725;;;;
2019/05/14 11:37:43;;;;;;;6;2.6;;;;;;;12.95;38.0498;969.7699;;;;
2019/05/14 11:40:08;;;;;;;4.7;2.1;;;;;;;12.36;40.0791;969.7687;;;;
2019/05/14 11:42:34;;;;;;;4.5;2.2;;;;;;;12.04;40.07324;969.7977;;;;
2019/05/14 11:44:59;;;;;;;5.2;2.4;;;;;;;11.82;40.18945;969.7841;;;;
2019/05/14 11:47:24;;;;;;;6.3;2.6;;;;;;;11.48;43.65332;969.7439;;;;
2019/05/14 11:49:49;;;;;;;5.8;2.3;;;;;;;11.34;45.0918;969.7585;;;;
2019/05/14 11:52:14;;;;;;;3.7;2.4;;;;;;;11.25;48.16016;969.7523;;;;
2019/05/14 11:54:39;;;;;;;3.8;2.1;;;;;;;11.07;49.26953;969.774;;;;
2019/05/14 11:57:04;;;;;;;5;2.4;;;;;;;11;50.59961;969.7136;;;;
2019/05/14 11:59:29;;;;;;;4.6;2.3;;;;;;;11.54;50.92773;969.5909;;;;
2019/05/14 12:01:55;;;;;;;5.3;2.5;;;;;;;13.69;45.41797;969.6356;;;;
2019/05/14 12:04:20;;;;;;;4.7;2.5;;;;;;;15.24;43.99707;969.5318;;;;
2019/05/14 12:06:45;;;;;;;4.1;2.2;;;;;;;15.77;38.00586;969.5144;;;;
2019/05/14 12:09:10;;;;;;;4.7;2.3;;;;;;;14.86;40.87891;969.4601;;;;
2019/05/14 12:11:35;;;;;;;4.5;2.3;;;;;;;14.44;38.91211;969.4665;;;;
2019/05/14 12:14:00;;;;;;;4.3;2.1;;;;;;;13.71;38.23242;969.5592;;;;
2019/05/14 12:16:25;;;;;;;4;2.2;;;;;;;13.01;41.40039;969.551;;;;
2019/05/14 12:18:53;;;;;;;5;1.9;;;;;;;12.64;39.30762;969.4322;;;;
2019/05/14 12:21:18;;;;;;;4.5;1.7;;;;;;;12.51;42.24316;969.4558;;;;
2019/05/14 12:23:43;;;;;;;4.4;2.5;;;;;;;12.97;37.48438;969.4587;;;;
2019/05/14 12:26:09;;;;;;;3.9;1.9;;;;;;;13.07;37.11035;969.4506;;;;
2019/05/14 12:28:34;;;;;;;4.3;2;;;;;;;13.38;35.52734;969.508;;;;
2019/05/14 12:30:59;;;;;;;4.8;2.1;;;;;;;13.58;36.12305;969.4567;;;;
2019/05/14 12:33:24;;;;;;;4.8;1.9;;;;;;;13.42;37.54688;969.4351;;;;
2019/05/14 12:35:49;;;;;;;4.7;1.9;;;;;;;13.19;37.80469;969.375;;;;
2019/05/14 12:38:14;;;;;;;3.2;1.9;;;;;;;13.49;36.44043;969.3985;;;;
2019/05/14 12:40:39;;;;;;;3.7;1.9;;;;;;;14.25;38.16406;969.2816;;;;
2019/05/14 12:43:04;;;;;;;5.7;1.8;;;;;;;15.1;36.48145;969.1417;;;;
2019/05/14 12:45:29;;;;;;;3.2;1.6;;;;;;;15.79;33.94238;969.1749;;;;
2019/05/14 12:47:55;;;;;;;3;1.5;;;;;;;15.96;32.33594;969.0402;;;;
2019/05/14 12:50:20;;;;;;;2.9;1.5;;;;;;;15.74;31.45801;969.1046;;;;
2019/05/14 12:52:46;;;;;;;3.7;1.6;;;;;;;16.02;29.88086;969.0302;;;;
2019/05/14 12:55:11;;;;;;;3.2;1.6;;;;;;;16.29;29.81836;969.0402;;;;
2019/05/14 12:57:36;;;;;;;3.3;1.6;;;;;;;16.51;32.14258;969.0323;;;;
2019/05/14 13:00:02;;;;;;;2.8;1.4;;;;;;;16.59;33.05859;968.9012;;;;
2019/05/14 13:02:28;;;;;;;3.3;1.4;;;;;;;16.81;27.75098;968.9556;;;;
2019/05/14 13:04:54;;;;;;;2.9;1.7;;;;;;;16.89;30.0459;968.9433;;;;
2019/05/14 13:07:19;;;;;;;3.1;1.7;;;;;;;16.89;29.77734;968.842;;;;
2019/05/14 13:09:45;;;;;;;4;1.5;;;;;;;17.24;29.66016;968.8031;;;;
2019/05/14 13:12:10;;;;;;;3.1;1.4;;;;;;;17.27;29.45215;968.7869;;;;
2019/05/14 13:14:35;;;;;;;3.7;1.6;;;;;;;16.79;28.73047;968.6279;;;;
2019/05/14 13:17:01;;;;;;;3.3;1.6;;;;;;;16.03;30.65137;968.8411;;;;
2019/05/14 13:19:26;;;;;;;6.7;2;;;;;;;14.82;32.37988;968.8727;;;;
2019/05/14 13:21:51;;;;;;;3;1.6;;;;;;;14.42;35.9375;968.8692;;;;
2019/05/14 13:24:16;;;;;;;4;1.8;;;;;;;13.92;36.08203;968.8681;;;;
2019/05/14 13:26:41;;;;;;;3.4;1.8;;;;;;;13.53;38.1709;968.8228;;;;
2019/05/14 13:29:06;;;;;;;3.2;1.7;;;;;;;13.28;38.73828;968.7439;;;;
2019/05/14 13:31:33;;;;;;;6.4;1.8;;;;;;;14.04;37.33398;968.683;;;;
2019/05/14 13:33:58;;;;;;;3.4;1.7;;;;;;;15.16;33.47461;968.7025;;;;
2019/05/14 13:36:23;;;;;;;4;1.9;;;;;;;16.06;31.57422;968.5578;;;;
2019/05/14 13:38:48;;;;;;;2.8;1.6;;;;;;;16.74;33.57129;968.571;;;;
2019/05/14 13:41:13;;;;;;;2.8;1.8;;;;;;;16.62;30.90234;968.5032;;;;
2019/05/14 13:43:38;;;;;;;3.9;1.7;;;;;;;16.95;30.45801;968.4892;;;;
2019/05/14 13:46:03;;;;;;;5.2;1.4;;;;;;;17.1;32.01074;968.4394;;;;
2019/05/14 13:48:28;;;;;;;2.7;1.4;;;;;;;16.75;31.37793;968.3727;;;;
2019/05/14 13:50:54;;;;;;;1.9;1.2;;;;;;;16.05;33.42676;968.4443;;;;
2019/05/14 13:53:19;;;;;;;2.9;1.2;;;;;;;15.15;30.13574;968.4406;;;;
2019/05/14 13:55:44;;;;;;;2.2;1.1;;;;;;;15.27;29.09668;968.3948;;;;
2019/05/14 13:58:09;;;;;;;1.4;1.1;;;;;;;15.62;31.33203;968.3712;;;;
2019/05/14 14:00:34;;;;;;;3.4;1.3;;;;;;;15.14;28.43652;968.3716;;;;
2019/05/14 14:02:59;;;;;;;7.2;1.1;;;;;;;14.59;29.44727;968.2761;;;;
2019/05/14 14:05:24;;;;;;;3.3;1.2;;;;;;;13.97;30.1709;968.353;;;;
2019/05/14 14:07:49;;;;;;;2.7;1;;;;;;;13.87;30.0127;968.2433;;;;
2019/05/14 14:10:15;;;;;;;3;1.3;;;;;;;13.64;31.73535;968.2197;;;;
2019/05/14 14:12:41;;;;;;;2.6;1.1;;;;;;;13.27;31.51172;968.2903;;;;
2019/05/14 14:15:07;;;;;;;3.5;1.4;;;;;;;13.33;32.40723;968.2769;;;;
2019/05/14 14:17:32;;;;;;;3.3;1.2;;;;;;;13.22;34.47266;968.2375;;;;
2019/05/14 14:19:57;;;;;;;2.9;1.4;;;;;;;13.67;34.93652;968.2214;;;;
2019/05/14 14:22:22;;;;;;;1.9;1.1;;;;;;;14.29;35.18359;968.1982;;;;
2019/05/14 14:24:47;;;;;;;2.2;1.1;;;;;;;14.45;31.71289;968.1578;;;;